CMA CGM Volga — 5BJR2 — position and weather

sailwx.info

Track history (hours):
 
Tides and Currents Weather Stations Pressure Air Temp Water Temp Dewpoint Dewpoint Depression Visibility Wind Speed Wind Dir Waves Ship Positions

CMA CGM Volga

Last reported at 2015-Sep-04 18:12 UTC. Time now 2015-Sep-05 10:22 UTC.
Position N 59°59' E 026°46'.

Length 184 m; draft 9.9 m.

Type: Ship (hazmat cat A). MMSI: 212456000.

Date/timePositionNaut miles runAvg speedWind from/ knotsBaromVisibWave heightAir tempDewpointWater temp
2015-Sep-04 18:12N 59°59' E 026°46'6818.6
2015-Sep-04 14:33N 59°45' E 024°34'2318.7
2015-Sep-04 13:20N 59°38' E 023°51'32118.1
2015-Sep-03 19:33N 54°53' E 019°16'1817.9
2015-Sep-03 18:34N 54°36' E 019°07'1313.0
2015-Sep-03 17:34N 54°26' E 018°54'7 6.6
2015-Sep-03 16:33N 54°23' E 018°43'0 0.0
2015-Sep-03 15:33N 54°23' E 018°43'0 0.0
2015-Sep-03 14:33N 54°23' E 018°43'0 0.0
2015-Sep-03 13:33N 54°23' E 018°43'0 0.0
2015-Sep-03 12:33N 54°23' E 018°43'0 0.0
2015-Sep-03 11:33N 54°23' E 018°43'0 0.0
2015-Sep-03 10:33N 54°23' E 018°43'0 0.0
2015-Sep-03 09:33N 54°23' E 018°43'0 0.0
2015-Sep-03 08:31N 54°23' E 018°43'0 0.0
2015-Sep-03 07:31N 54°23' E 018°43'0 0.0
2015-Sep-03 06:32N 54°23' E 018°43'0 0.0
2015-Sep-03 05:32N 54°23' E 018°43'0 0.0
2015-Sep-03 03:17N 54°23' E 018°43'0 0.0
2015-Sep-03 02:29N 54°23' E 018°43'0 0.0
2015-Sep-03 01:29N 54°23' E 018°43'0 0.0
2015-Sep-03 00:29N 54°23' E 018°43'0 0.0
2015-Sep-02 23:32N 54°23' E 018°43'0 0.0
2015-Sep-02 22:20N 54°23' E 018°43'0 0.0
2015-Sep-02 21:32N 54°23' E 018°43'0 0.0
2015-Sep-02 20:23N 54°23' E 018°43'0 0.0
2015-Sep-02 19:32N 54°23' E 018°43'0 0.0
2015-Sep-02 18:32N 54°23' E 018°43'0 0.0
2015-Sep-02 17:29N 54°23' E 018°43'0 0.0
2015-Sep-02 16:29N 54°23' E 018°43'0 0.0
2015-Sep-02 15:32N 54°23' E 018°43'0 0.0
2015-Sep-02 14:29N 54°23' E 018°43'0 0.0
2015-Sep-02 13:32N 54°23' E 018°43'0 0.0
2015-Sep-02 12:32N 54°23' E 018°43'0 0.0
2015-Sep-02 11:32N 54°23' E 018°43'0 0.0
2015-Sep-02 10:32N 54°23' E 018°43'0 0.0
2015-Sep-02 09:32N 54°23' E 018°43'0 0.0
2015-Sep-02 08:32N 54°23' E 018°43'0 0.0
2015-Sep-02 07:32N 54°23' E 018°43'0 0.0
2015-Sep-02 06:32N 54°23' E 018°43'0 0.0
2015-Sep-02 05:32N 54°23' E 018°43'0 0.0
2015-Sep-02 04:29N 54°23' E 018°43'0 0.0
2015-Sep-02 03:32N 54°23' E 018°43'0 0.0
2015-Sep-02 02:32N 54°23' E 018°43'0 0.0
2015-Sep-02 01:32N 54°23' E 018°43'0 0.0
2015-Sep-02 00:32N 54°23' E 018°43'0 0.0
2015-Sep-01 23:32N 54°23' E 018°43'1 0.7
2015-Sep-01 22:34N 54°24' E 018°43'9 8.9
2015-Sep-01 21:33N 54°28' E 018°57'1111.0
2015-Sep-01 20:33N 54°38' E 019°04'1313.5
2015-Sep-01 19:33N 54°51' E 019°10'1414.3
2015-Sep-01 18:33N 55°05' E 019°18'1414.2
2015-Sep-01 17:33N 55°18' E 019°27'1413.9
2015-Sep-01 16:33N 55°31' E 019°36'1513.6
2015-Sep-01 15:25N 55°46' E 019°46'1313.5
2015-Sep-01 14:26N 55°58' E 019°54'  
2015-Aug-30 03:26N 59°37' E 023°21'1112.7
2015-Aug-30 02:32N 59°41' E 023°43'8812.5
2015-Aug-29 19:29N 60°01' E 026°33'1111.4
2015-Aug-29 18:33N 59°60' E 026°54'1411.2
2015-Aug-29 17:18N 60°04' E 027°21'6511.1
2015-Aug-29 11:28N 60°01' E 029°31'9 9.5
2015-Aug-29 10:29N 59°58' E 029°48'1111.8
2015-Aug-29 09:33N 59°54' E 030°08'2 1.8
2015-Aug-29 08:33N 59°53' E 030°11'0 0.0
2015-Aug-29 07:22N 59°53' E 030°11'0 0.0
2015-Aug-29 06:31N 59°53' E 030°11'0 0.0
2015-Aug-29 05:31N 59°53' E 030°11'0 0.0
2015-Aug-29 04:32N 59°53' E 030°11'0 0.0
2015-Aug-29 03:32N 59°53' E 030°11'0 0.0
2015-Aug-29 02:32N 59°53' E 030°11'0 0.0
2015-Aug-29 01:14N 59°53' E 030°11'0 0.0
2015-Aug-29 00:32N 59°53' E 030°11'0 0.0
2015-Aug-28 23:32N 59°53' E 030°11'0 0.0
2015-Aug-28 22:32N 59°53' E 030°11'0 0.0
2015-Aug-28 21:32N 59°53' E 030°11'0 0.0
2015-Aug-28 20:32N 59°53' E 030°11'0 0.0
2015-Aug-28 19:32N 59°53' E 030°11'0 0.0
2015-Aug-28 18:32N 59°53' E 030°11'0 0.0
2015-Aug-28 17:32N 59°53' E 030°11'0 0.0
2015-Aug-28 16:33N 59°53' E 030°11'0 0.0
2015-Aug-28 15:33N 59°53' E 030°11'1 1.1
2015-Aug-28 14:33N 59°53' E 030°09'1110.6
2015-Aug-28 13:33N 59°57' E 029°50'90 8.2
2015-Aug-28 02:33N 59°59' E 026°50'9 9.1
2015-Aug-28 01:33N 60°01' E 026°32'1615.6
2015-Aug-28 00:33N 59°59' E 027°03'1615.9
2015-Aug-27 23:31N 60°08' E 027°31'22 0.8
2015-Aug-26 20:33N 59°59' E 026°51'1413.8
2015-Aug-26 19:32N 59°57' E 026°23'  
Track history (hours):
 
Tides and Currents Weather Stations Pressure Air Temp Water Temp Dewpoint Dewpoint Depression Visibility Wind Speed Wind Dir Waves Ship Positions

CMA CGM Volga

Last reported at 2015-Sep-04 18:12 UTC. Time now 2015-Sep-05 10:22 UTC.
Position N 59°59' E 026°46'.

Length 184 m; draft 9.9 m.

Type: Ship (hazmat cat A). MMSI: 212456000.

Date/timePositionNaut miles runAvg speedWind from/ knotsBaromVisibWave heightAir tempDewpointWater temp
2015-Sep-04 18:12N 59°59' E 026°46'6818.6
2015-Sep-04 14:33N 59°45' E 024°34'2318.7
2015-Sep-04 13:20N 59°38' E 023°51'32118.1
2015-Sep-03 19:33N 54°53' E 019°16'1817.9
2015-Sep-03 18:34N 54°36' E 019°07'1313.0
2015-Sep-03 17:34N 54°26' E 018°54'7 6.6
2015-Sep-03 16:33N 54°23' E 018°43'0 0.0
2015-Sep-03 15:33N 54°23' E 018°43'0 0.0
2015-Sep-03 14:33N 54°23' E 018°43'0 0.0
2015-Sep-03 13:33N 54°23' E 018°43'0 0.0
2015-Sep-03 12:33N 54°23' E 018°43'0 0.0
2015-Sep-03 11:33N 54°23' E 018°43'0 0.0
2015-Sep-03 10:33N 54°23' E 018°43'0 0.0
2015-Sep-03 09:33N 54°23' E 018°43'0 0.0
2015-Sep-03 08:31N 54°23' E 018°43'0 0.0
2015-Sep-03 07:31N 54°23' E 018°43'0 0.0
2015-Sep-03 06:32N 54°23' E 018°43'0 0.0
2015-Sep-03 05:32N 54°23' E 018°43'0 0.0
2015-Sep-03 03:17N 54°23' E 018°43'0 0.0
2015-Sep-03 02:29N 54°23' E 018°43'0 0.0
2015-Sep-03 01:29N 54°23' E 018°43'0 0.0
2015-Sep-03 00:29N 54°23' E 018°43'0 0.0
2015-Sep-02 23:32N 54°23' E 018°43'0 0.0
2015-Sep-02 22:20N 54°23' E 018°43'0 0.0
2015-Sep-02 21:32N 54°23' E 018°43'0 0.0
2015-Sep-02 20:23N 54°23' E 018°43'0 0.0
2015-Sep-02 19:32N 54°23' E 018°43'0 0.0
2015-Sep-02 18:32N 54°23' E 018°43'0 0.0
2015-Sep-02 17:29N 54°23' E 018°43'0 0.0
2015-Sep-02 16:29N 54°23' E 018°43'0 0.0
2015-Sep-02 15:32N 54°23' E 018°43'0 0.0
2015-Sep-02 14:29N 54°23' E 018°43'0 0.0
2015-Sep-02 13:32N 54°23' E 018°43'0 0.0
2015-Sep-02 12:32N 54°23' E 018°43'0 0.0
2015-Sep-02 11:32N 54°23' E 018°43'0 0.0
2015-Sep-02 10:32N 54°23' E 018°43'0 0.0
2015-Sep-02 09:32N 54°23' E 018°43'0 0.0
2015-Sep-02 08:32N 54°23' E 018°43'0 0.0
2015-Sep-02 07:32N 54°23' E 018°43'0 0.0
2015-Sep-02 06:32N 54°23' E 018°43'0 0.0
2015-Sep-02 05:32N 54°23' E 018°43'0 0.0
2015-Sep-02 04:29N 54°23' E 018°43'0 0.0
2015-Sep-02 03:32N 54°23' E 018°43'0 0.0
2015-Sep-02 02:32N 54°23' E 018°43'0 0.0
2015-Sep-02 01:32N 54°23' E 018°43'0 0.0
2015-Sep-02 00:32N 54°23' E 018°43'0 0.0
2015-Sep-01 23:32N 54°23' E 018°43'1 0.7
2015-Sep-01 22:34N 54°24' E 018°43'9 8.9
2015-Sep-01 21:33N 54°28' E 018°57'1111.0
2015-Sep-01 20:33N 54°38' E 019°04'1313.5
2015-Sep-01 19:33N 54°51' E 019°10'1414.3
2015-Sep-01 18:33N 55°05' E 019°18'1414.2
2015-Sep-01 17:33N 55°18' E 019°27'1413.9
2015-Sep-01 16:33N 55°31' E 019°36'1513.6
2015-Sep-01 15:25N 55°46' E 019°46'1313.5
2015-Sep-01 14:26N 55°58' E 019°54'  
2015-Aug-30 03:26N 59°37' E 023°21'1112.7
2015-Aug-30 02:32N 59°41' E 023°43'8812.5
2015-Aug-29 19:29N 60°01' E 026°33'1111.4
2015-Aug-29 18:33N 59°60' E 026°54'1411.2
2015-Aug-29 17:18N 60°04' E 027°21'6511.1
2015-Aug-29 11:28N 60°01' E 029°31'9 9.5
2015-Aug-29 10:29N 59°58' E 029°48'1111.8
2015-Aug-29 09:33N 59°54' E 030°08'2 1.8
2015-Aug-29 08:33N 59°53' E 030°11'0 0.0
2015-Aug-29 07:22N 59°53' E 030°11'0 0.0
2015-Aug-29 06:31N 59°53' E 030°11'0 0.0
2015-Aug-29 05:31N 59°53' E 030°11'0 0.0
2015-Aug-29 04:32N 59°53' E 030°11'0 0.0
2015-Aug-29 03:32N 59°53' E 030°11'0 0.0
2015-Aug-29 02:32N 59°53' E 030°11'0 0.0
2015-Aug-29 01:14N 59°53' E 030°11'0 0.0
2015-Aug-29 00:32N 59°53' E 030°11'0 0.0
2015-Aug-28 23:32N 59°53' E 030°11'0 0.0
2015-Aug-28 22:32N 59°53' E 030°11'0 0.0
2015-Aug-28 21:32N 59°53' E 030°11'0 0.0
2015-Aug-28 20:32N 59°53' E 030°11'0 0.0
2015-Aug-28 19:32N 59°53' E 030°11'0 0.0
2015-Aug-28 18:32N 59°53' E 030°11'0 0.0
2015-Aug-28 17:32N 59°53' E 030°11'0 0.0
2015-Aug-28 16:33N 59°53' E 030°11'0 0.0
2015-Aug-28 15:33N 59°53' E 030°11'1 1.1
2015-Aug-28 14:33N 59°53' E 030°09'1110.6
2015-Aug-28 13:33N 59°57' E 029°50'90 8.2
2015-Aug-28 02:33N 59°59' E 026°50'9 9.1
2015-Aug-28 01:33N 60°01' E 026°32'1615.6
2015-Aug-28 00:33N 59°59' E 027°03'1615.9
2015-Aug-27 23:31N 60°08' E 027°31'22 0.8
2015-Aug-26 20:33N 59°59' E 026°51'1413.8
2015-Aug-26 19:32N 59°57' E 026°23'  

Dump ship's entire track history